Time;durP1;ratioP1;P1;durP2;ratioP2;P2;SDS_P1;SDS_P2;PMS_P1;PMS_P2;Temp;Humidity;BMP_temperature;BMP_pressure;BME280_temperature;BME280_humidity;BME280_pressure;Samples;Min_cycle;Max_cycle;Signal;HPM_P1;HPM_P2
2022/01/11 00:00:37;;;;;;;46.47;12.48;;;;;;;-0.34;100.00;103067.19;5083727;28;20024;-83
2022/01/11 00:03:05;;;;;;;41.97;12.77;;;;;;;-0.34;100.00;103068.91;5070379;28;20055;-83
2022/01/11 00:05:37;;;;;;;38.17;12.45;;;;;;;-0.33;100.00;103073.16;5079672;28;20104;-83
2022/01/11 00:08:03;;;;;;;51.08;13.75;;;;;;;-0.34;100.00;103082.47;5083365;28;20035;-83
2022/01/11 00:10:35;;;;;;;44.13;13.40;;;;;;;-0.36;100.00;103080.66;5088524;28;20027;-83
2022/01/11 00:13:01;;;;;;;43.85;12.93;;;;;;;-0.35;100.00;103078.22;5078235;28;20107;-83
2022/01/11 00:15:28;;;;;;;38.38;13.05;;;;;;;-0.32;100.00;103091.09;5089104;28;20386;-83
2022/01/11 00:17:56;;;;;;;44.65;13.15;;;;;;;-0.33;100.00;103091.88;5089699;28;20024;-83
2022/01/11 00:20:22;;;;;;;45.72;13.80;;;;;;;-0.30;100.00;103086.97;5089429;28;20081;-82
2022/01/11 00:25:32;;;;;;;42.80;13.20;;;;;;;-0.25;100.00;103094.88;5083795;28;20039;-82
2022/01/11 00:27:58;;;;;;;43.03;13.18;;;;;;;-0.26;100.00;103101.63;5089295;28;20107;-82
2022/01/11 00:30:30;;;;;;;46.78;13.35;;;;;;;-0.31;100.00;103100.50;5073310;28;20103;-82
2022/01/11 00:32:57;;;;;;;45.55;13.30;;;;;;;-0.34;100.00;103107.97;5093041;28;20020;-82
2022/01/11 00:35:27;;;;;;;45.25;13.20;;;;;;;-0.32;100.00;103103.84;5090029;28;20114;-82
2022/01/11 00:37:55;;;;;;;63.65;13.38;;;;;;;-0.33;100.00;103109.72;5092947;28;20115;-82
2022/01/11 00:40:20;;;;;;;42.88;12.57;;;;;;;-0.31;100.00;103113.25;5089168;28;20117;-82
2022/01/11 00:42:46;;;;;;;50.80;13.43;;;;;;;-0.29;100.00;103110.78;5091881;28;20385;-82
2022/01/11 00:45:12;;;;;;;49.17;13.68;;;;;;;-0.28;100.00;103105.78;5087064;28;20103;-82
2022/01/11 00:47:38;;;;;;;56.88;14.07;;;;;;;-0.28;100.00;103105.78;5072923;28;20413;-82
2022/01/11 00:50:06;;;;;;;55.53;14.70;;;;;;;-0.31;100.00;103100.50;5087630;28;20486;-82
2022/01/11 00:52:31;;;;;;;43.45;13.95;;;;;;;-0.31;100.00;103089.44;5089955;28;20043;-82
2022/01/11 00:54:57;;;;;;;40.92;13.95;;;;;;;-0.30;100.00;103089.53;5090707;28;20024;-82
2022/01/11 00:57:22;;;;;;;50.55;15.25;;;;;;;-0.29;100.00;103096.38;5081471;28;20028;-82
2022/01/11 00:59:47;;;;;;;52.10;14.75;;;;;;;-0.31;100.00;103097.06;5075085;28;20058;-82
2022/01/11 01:02:13;;;;;;;55.80;14.38;;;;;;;-0.37;100.00;103100.16;5087838;28;20114;-82
2022/01/11 01:04:38;;;;;;;62.63;15.80;;;;;;;-0.43;100.00;103099.81;5070363;28;20039;-82
2022/01/11 01:07:04;;;;;;;45.88;13.98;;;;;;;-0.41;100.00;103114.38;5073102;28;20028;-82
2022/01/11 01:09:37;;;;;;;48.03;14.85;;;;;;;-0.40;100.00;103115.25;5091175;28;20517;-82
2022/01/11 01:12:03;;;;;;;51.15;14.73;;;;;;;-0.41;100.00;103119.47;5064350;28;20024;-82
2022/01/11 01:14:29;;;;;;;64.55;14.88;;;;;;;-0.43;100.00;103115.09;5082389;28;20397;-82
2022/01/11 01:16:54;;;;;;;45.63;14.60;;;;;;;-0.41;100.00;103106.72;5090826;28;20115;-82
2022/01/11 01:19:19;;;;;;;56.83;14.40;;;;;;;-0.35;100.00;103105.34;5090921;28;20031;-82
2022/01/11 01:21:47;;;;;;;54.85;14.13;;;;;;;-0.33;100.00;103107.19;5089604;28;20044;-82
2022/01/11 01:24:13;;;;;;;56.95;14.85;;;;;;;-0.34;100.00;103105.41;5082365;28;20095;-82
2022/01/11 01:26:39;;;;;;;44.28;14.35;;;;;;;-0.37;100.00;103106.91;5090385;28;20120;-82
2022/01/11 01:29:04;;;;;;;48.75;13.88;;;;;;;-0.40;100.00;103099.97;5090935;28;20028;-82
2022/01/11 01:31:30;;;;;;;40.28;13.68;;;;;;;-0.37;100.00;103114.56;5087907;28;20032;-82
2022/01/11 01:33:56;;;;;;;44.97;13.93;;;;;;;-0.40;100.00;103105.94;5091105;28;20028;-82
2022/01/11 01:36:23;;;;;;;44.08;13.40;;;;;;;-0.33;100.00;103107.19;5071789;28;20027;-82
2022/01/11 01:38:49;;;;;;;47.70;14.98;;;;;;;-0.36;100.00;103109.56;5091081;28;20111;-82
2022/01/11 01:41:20;;;;;;;44.40;14.35;;;;;;;-0.34;100.00;103114.75;5032489;28;1047367;-82
2022/01/11 01:43:49;;;;;;;43.95;14.15;;;;;;;-0.35;100.00;103113.00;5090282;28;20024;-82
2022/01/11 01:46:15;;;;;;;52.55;15.73;;;;;;;-0.37;100.00;103120.53;5087548;28;20020;-82
2022/01/11 01:48:40;;;;;;;46.40;13.98;;;;;;;-0.39;100.00;103124.66;5079009;28;20058;-81
2022/01/11 01:51:07;;;;;;;45.13;13.80;;;;;;;-0.38;100.00;103123.00;5068392;28;20378;-82
2022/01/11 01:53:39;;;;;;;43.33;13.55;;;;;;;-0.37;100.00;103115.44;5088093;28;20170;-82
2022/01/11 01:56:06;;;;;;;44.20;13.73;;;;;;;-0.38;100.00;103103.50;5091005;28;20107;-82
2022/01/11 01:58:32;;;;;;;41.97;13.18;;;;;;;-0.38;100.00;103111.13;5082240;28;20024;-82
2022/01/11 02:01:03;;;;;;;39.58;13.52;;;;;;;-0.44;100.00;103119.31;5087611;28;20397;-82
2022/01/11 02:03:31;;;;;;;40.65;12.68;;;;;;;-0.48;100.00;103122.47;5071742;28;20032;-82
2022/01/11 02:05:57;;;;;;;44.13;13.50;;;;;;;-0.50;100.00;103129.16;5086371;28;20032;-82
2022/01/11 02:08:25;;;;;;;47.13;13.68;;;;;;;-0.53;100.00;103121.31;5091103;28;20036;-82
2022/01/11 02:10:50;;;;;;;44.17;14.65;;;;;;;-0.54;100.00;103118.69;5088879;28;20032;-82
2022/01/11 02:13:16;;;;;;;48.55;14.57;;;;;;;-0.50;100.00;103129.16;5076350;28;20046;-82
2022/01/11 02:15:42;;;;;;;46.00;14.13;;;;;;;-0.55;100.00;103130.56;5087349;28;20036;-82
2022/01/11 02:18:12;;;;;;;41.60;12.43;;;;;;;-0.58;100.00;103127.81;5090436;28;20020;-82
2022/01/11 02:20:47;;;;;;;46.83;13.98;;;;;;;-0.59;100.00;103122.63;5091406;28;20028;-84
2022/01/11 02:23:14;;;;;;;45.70;13.70;;;;;;;-0.66;100.00;103111.22;5091068;28;20059;-84
2022/01/11 02:25:40;;;;;;;46.97;13.40;;;;;;;-0.60;100.00;103124.31;5072093;28;20012;-84
2022/01/11 02:28:06;;;;;;;48.60;13.40;;;;;;;-0.60;100.00;103124.31;5090903;28;20058;-84
2022/01/11 02:30:34;;;;;;;40.10;12.85;;;;;;;-0.61;100.00;103132.72;5089264;28;20035;-84
2022/01/11 02:33:01;;;;;;;43.55;13.00;;;;;;;-0.61;100.00;103137.81;5088769;28;20533;-84
2022/01/11 02:35:26;;;;;;;48.53;13.93;;;;;;;-0.60;100.00;103146.34;5090380;28;20024;-84
2022/01/11 02:37:52;;;;;;;42.97;12.70;;;;;;;-0.61;100.00;103147.13;5083137;28;20134;-84
2022/01/11 02:40:17;;;;;;;46.22;13.27;;;;;;;-0.61;100.00;103144.56;5063899;28;20179;-83
2022/01/11 02:42:42;;;;;;;42.65;12.80;;;;;;;-0.65;100.00;103142.66;5066184;28;20063;-84
2022/01/11 02:45:16;;;;;;;37.15;12.18;;;;;;;-0.68;100.00;103148.44;5086140;28;20343;-84
2022/01/11 02:47:44;;;;;;;40.08;12.32;;;;;;;-0.69;100.00;103159.44;5083162;28;20032;-84
2022/01/11 02:50:10;;;;;;;44.50;13.18;;;;;;;-0.67;100.00;103155.28;5086914;28;20395;-84
2022/01/11 02:52:36;;;;;;;42.80;12.73;;;;;;;-0.63;100.00;103156.38;5085274;28;20059;-84
2022/01/11 02:55:06;;;;;;;42.78;13.43;;;;;;;-0.62;100.00;103161.56;5070355;28;20047;-84
2022/01/11 02:57:32;;;;;;;40.13;12.80;;;;;;;-0.61;100.00;103158.19;5075945;28;20078;-84
2022/01/11 02:59:57;;;;;;;40.03;12.88;;;;;;;-0.63;100.00;103156.38;5080331;28;20028;-84
2022/01/11 03:02:22;;;;;;;42.10;13.43;;;;;;;-0.62;100.00;103160.66;5071237;28;20019;-84
2022/01/11 03:04:48;;;;;;;42.40;13.35;;;;;;;-0.64;100.00;103159.69;5071741;28;20772;-84
2022/01/11 03:07:21;;;;;;;47.58;13.82;;;;;;;-0.62;100.00;103159.00;5085028;28;20079;-84
2022/01/11 03:10:02;;;;;;;47.83;14.02;;;;;;;-0.57;100.00;103167.78;5071384;28;20032;-84
2022/01/11 03:12:28;;;;;;;49.40;14.35;;;;;;;-0.58;100.00;103165.16;5065816;28;20141;-84
2022/01/11 03:14:53;;;;;;;50.65;15.02;;;;;;;-0.57;100.00;103161.81;5089507;28;20467;-84
2022/01/11 03:17:18;;;;;;;45.72;14.30;;;;;;;-0.58;100.00;103166.03;5067997;28;20035;-84
2022/01/11 03:19:45;;;;;;;50.38;14.23;;;;;;;-0.56;100.00;103155.94;5068262;28;20029;-84
2022/01/11 03:22:10;;;;;;;48.45;14.85;;;;;;;-0.56;100.00;103158.47;5083630;28;20032;-82
2022/01/11 03:24:37;;;;;;;44.45;13.50;;;;;;;-0.60;100.00;103156.53;5088520;28;20026;-82
2022/01/11 03:27:05;;;;;;;47.15;14.45;;;;;;;-0.61;100.00;103160.75;5084695;28;20043;-83
2022/01/11 03:29:30;;;;;;;46.50;13.85;;;;;;;-0.65;100.00;103148.63;5085929;28;20458;-81
2022/01/11 03:31:55;;;;;;;46.33;13.82;;;;;;;-0.60;100.00;103159.94;5088384;28;20473;-81
2022/01/11 03:34:21;;;;;;;51.53;14.25;;;;;;;-0.57;100.00;103162.69;5089002;28;20036;-81
2022/01/11 03:36:46;;;;;;;56.20;15.73;;;;;;;-0.59;100.00;103155.75;5068154;28;20116;-81
2022/01/11 03:39:12;;;;;;;47.17;13.75;;;;;;;-0.56;100.00;103164.47;5067942;28;20064;-81
2022/01/11 03:41:37;;;;;;;50.92;14.52;;;;;;;-0.56;100.00;103159.38;5073659;28;20041;-81
2022/01/11 03:44:03;;;;;;;50.33;15.02;;;;;;;-0.58;100.00;103160.06;5080372;28;20094;-81
2022/01/11 03:46:28;;;;;;;46.35;14.32;;;;;;;-0.57;100.00;103157.59;5087644;28;20378;-81
2022/01/11 03:48:53;;;;;;;52.50;15.02;;;;;;;-0.58;100.00;103154.97;5087489;28;20050;-81
2022/01/11 03:51:19;;;;;;;53.00;15.27;;;;;;;-0.60;100.00;103164.16;5079339;28;20474;-81
2022/01/11 03:53:54;;;;;;;53.10;15.82;;;;;;;-0.63;100.00;103166.56;5088540;28;20513;-80
2022/01/11 03:56:22;;;;;;;48.72;14.68;;;;;;;-0.66;100.00;103164.69;5089088;28;20449;-80
2022/01/11 03:58:51;;;;;;;49.00;14.07;;;;;;;-0.61;100.00;103170.03;5081569;28;20424;-81
2022/01/11 04:01:17;;;;;;;52.70;15.57;;;;;;;-0.58;100.00;103186.41;5088399;28;20496;-81
2022/01/11 04:03:44;;;;;;;59.08;15.77;;;;;;;-0.60;100.00;103175.22;5088711;28;20024;-81
2022/01/11 04:06:09;;;;;;;53.58;15.90;;;;;;;-0.61;100.00;103168.38;5088192;28;20023;-81
2022/01/11 04:08:35;;;;;;;54.13;15.07;;;;;;;-0.61;100.00;103170.03;5074289;28;20032;-81
2022/01/11 04:11:00;;;;;;;51.85;16.02;;;;;;;-0.58;100.00;103165.16;5089154;28;20056;-81
2022/01/11 04:13:25;;;;;;;57.55;16.02;;;;;;;-0.56;100.00;103169.56;5082206;28;20386;-81
2022/01/11 04:15:51;;;;;;;55.67;15.23;;;;;;;-0.53;100.00;103158.66;5088623;28;20492;-81
2022/01/11 04:18:16;;;;;;;61.70;17.20;;;;;;;-0.51;100.00;103169.81;5075109;28;20030;-81
2022/01/11 04:20:41;;;;;;;53.85;15.38;;;;;;;-0.53;100.00;103179.03;5085339;28;20040;-81
2022/01/11 04:23:11;;;;;;;51.67;14.90;;;;;;;-0.54;100.00;103183.22;5085535;28;21229;-81
2022/01/11 04:25:37;;;;;;;51.67;15.02;;;;;;;-0.56;100.00;103182.28;5070985;28;20046;-81
2022/01/11 04:28:03;;;;;;;48.55;14.57;;;;;;;-0.60;100.00;103176.91;5085860;28;20507;-81
2022/01/11 04:30:28;;;;;;;50.10;15.68;;;;;;;-0.61;100.00;103177.69;5089565;28;20030;-81
2022/01/11 04:32:53;;;;;;;51.95;15.15;;;;;;;-0.61;100.00;103182.78;5067799;28;20034;-81
2022/01/11 04:35:19;;;;;;;53.05;16.27;;;;;;;-0.65;100.00;103181.72;5082650;28;20031;-81
2022/01/11 04:37:45;;;;;;;53.05;15.20;;;;;;;-0.61;100.00;103193.84;5080039;28;20355;-81
2022/01/11 04:40:11;;;;;;;55.45;15.27;;;;;;;-0.64;100.00;103190.25;5081777;28;20062;-81
2022/01/11 04:42:37;;;;;;;51.90;15.98;;;;;;;-0.66;100.00;103192.69;5087149;28;20557;-81
2022/01/11 04:45:03;;;;;;;52.58;15.93;;;;;;;-0.64;100.00;103190.25;5080865;28;20564;-81
2022/01/11 04:47:28;;;;;;;46.20;14.18;;;;;;;-0.63;100.00;103189.47;5085146;28;20023;-81
2022/01/11 04:49:53;;;;;;;51.88;15.38;;;;;;;-0.65;100.00;103188.50;5078838;28;20039;-81
2022/01/11 04:52:19;;;;;;;54.38;15.02;;;;;;;-0.66;100.00;103186.72;5082174;28;20095;-81
2022/01/11 04:54:44;;;;;;;54.85;14.98;;;;;;;-0.67;100.00;103185.84;5088726;28;20475;-81
2022/01/11 04:57:09;;;;;;;49.35;14.27;;;;;;;-0.66;100.00;103182.50;5069933;28;20111;-81
2022/01/11 04:59:35;;;;;;;50.78;15.82;;;;;;;-0.68;100.00;103188.31;5082373;28;20047;-81
2022/01/11 05:02:00;;;;;;;50.70;14.85;;;;;;;-0.70;100.00;103179.72;5087219;28;20032;-81
2022/01/11 05:04:26;;;;;;;54.35;15.77;;;;;;;-0.77;100.00;103177.59;5087528;28;20456;-81
2022/01/11 05:06:51;;;;;;;47.28;14.65;;;;;;;-0.85;100.00;103169.47;5088036;28;20054;-80
2022/01/11 05:09:16;;;;;;;53.90;15.82;;;;;;;-0.89;100.00;103185.38;5086167;28;20020;-81
2022/01/11 05:11:42;;;;;;;56.17;17.70;;;;;;;-0.95;100.00;103174.78;5081933;28;20050;-81
2022/01/11 05:14:07;;;;;;;51.03;16.70;;;;;;;-1.01;100.00;103188.03;5081083;28;20032;-81
2022/01/11 05:16:32;;;;;;;47.83;15.00;;;;;;;-1.08;100.00;103183.34;5089535;28;20563;-81
2022/01/11 05:18:57;;;;;;;52.75;16.80;;;;;;;-1.14;100.00;103184.63;5086089;28;20047;-81
2022/01/11 05:21:23;;;;;;;50.67;15.27;;;;;;;-1.18;100.00;103181.03;5089938;28;20462;-81
2022/01/11 05:23:48;;;;;;;49.10;14.75;;;;;;;-1.17;100.00;103185.34;5091606;28;20016;-81
2022/01/11 05:26:14;;;;;;;58.00;15.88;;;;;;;-1.22;100.00;103182.50;5084311;28;20020;-81
2022/01/11 05:28:39;;;;;;;53.70;16.13;;;;;;;-1.23;100.00;103180.75;5091996;28;20035;-81
2022/01/11 05:31:04;;;;;;;56.53;16.33;;;;;;;-1.23;100.00;103183.28;5089835;28;20503;-81
2022/01/11 05:33:30;;;;;;;58.03;16.48;;;;;;;-1.25;100.00;103181.44;5089864;28;20059;-81
2022/01/11 05:35:56;;;;;;;56.92;16.52;;;;;;;-1.31;100.00;103176.00;5085927;28;20050;-81
2022/01/11 05:38:21;;;;;;;54.08;16.33;;;;;;;-1.33;100.00;103177.56;5091927;28;20027;-81
2022/01/11 05:40:46;;;;;;;52.60;16.45;;;;;;;-1.38;100.00;103176.38;5089398;28;21210;-81
2022/01/11 05:43:14;;;;;;;52.00;16.02;;;;;;;-1.44;100.00;103174.34;5086330;28;20020;-81
2022/01/11 05:45:40;;;;;;;56.10;16.13;;;;;;;-1.49;100.00;103174.81;5072716;28;20032;-81
2022/01/11 05:48:05;;;;;;;54.58;17.05;;;;;;;-1.56;100.00;103177.75;5090539;28;20035;-81
2022/01/11 05:50:31;;;;;;;52.20;15.85;;;;;;;-1.62;100.00;103188.44;5091095;28;20036;-81
2022/01/11 05:52:56;;;;;;;56.20;16.40;;;;;;;-1.70;100.00;103181.97;5073642;28;20032;-81
2022/01/11 05:55:22;;;;;;;52.58;15.35;;;;;;;-1.78;100.00;103194.22;5072955;28;20521;-81
2022/01/11 05:57:47;;;;;;;53.47;15.93;;;;;;;-1.79;100.00;103196.66;5091057;28;20028;-81
2022/01/11 06:00:16;;;;;;;53.90;16.10;;;;;;;-1.87;100.00;103203.78;5089229;28;20036;-81
2022/01/11 06:02:46;;;;;;;51.05;14.60;;;;;;;-1.89;100.00;103200.25;5072911;28;20058;-81
2022/01/11 06:05:11;;;;;;;51.28;15.40;;;;;;;-1.94;100.00;103205.84;5090596;28;20016;-81
2022/01/11 06:07:37;;;;;;;54.72;15.88;;;;;;;-2.00;100.00;103208.88;5091264;28;20035;-81
2022/01/11 06:10:04;;;;;;;57.63;16.48;;;;;;;-2.03;100.00;103212.06;5091310;28;20406;-81
2022/01/11 06:12:29;;;;;;;55.03;15.63;;;;;;;-2.04;100.00;103214.50;5090752;28;20107;-81
2022/01/11 06:14:55;;;;;;;51.38;15.30;;;;;;;-2.11;100.00;103212.34;5091343;28;20038;-81
2022/01/11 06:17:20;;;;;;;54.10;16.38;;;;;;;-2.12;100.00;103223.31;5070790;28;20040;-81
2022/01/11 06:19:45;;;;;;;50.75;15.75;;;;;;;-2.16;100.00;103231.50;5087151;28;20031;-81
2022/01/11 06:22:11;;;;;;;49.33;14.77;;;;;;;-2.21;100.00;103246.44;5077040;28;20028;-81
2022/01/11 06:24:36;;;;;;;52.25;15.35;;;;;;;-2.22;100.00;103241.25;5087847;28;20024;-81
2022/01/11 06:27:02;;;;;;;52.35;14.70;;;;;;;-2.27;100.00;103251.09;5089614;28;20131;-81
2022/01/11 06:29:27;;;;;;;51.45;15.60;;;;;;;-2.26;100.00;103252.00;5089515;28;20036;-81
2022/01/11 06:31:52;;;;;;;59.45;16.15;;;;;;;-2.30;100.00;103250.88;5087146;28;20032;-81
2022/01/11 06:34:18;;;;;;;50.88;16.38;;;;;;;-2.31;100.00;103255.84;5090721;28;20511;-81
2022/01/11 06:36:43;;;;;;;55.22;16.08;;;;;;;-2.32;100.00;103249.91;5082559;28;20050;-81
2022/01/11 06:39:08;;;;;;;55.03;16.90;;;;;;;-2.32;100.00;103249.91;5090197;28;20061;-81
2022/01/11 06:41:35;;;;;;;49.38;15.75;;;;;;;-2.22;100.00;103253.94;5065558;28;20028;-81
2022/01/11 06:44:00;;;;;;;52.92;17.08;;;;;;;-2.16;100.00;103256.88;5075109;28;20366;-81
2022/01/11 06:46:26;;;;;;;54.22;16.73;;;;;;;-2.14;100.00;103258.78;5083611;28;20462;-81
2022/01/11 06:48:51;;;;;;;58.08;17.80;;;;;;;-2.13;100.00;103259.66;5072092;28;20023;-81
2022/01/11 06:51:18;;;;;;;51.40;15.35;;;;;;;-2.12;100.00;103272.47;5089003;28;20363;-81
2022/01/11 06:53:44;;;;;;;50.95;16.85;;;;;;;-2.13;100.00;103262.19;5089534;28;20411;-81
2022/01/11 06:56:09;;;;;;;54.67;16.05;;;;;;;-2.11;100.00;103268.22;5090057;28;20024;-81
2022/01/11 06:58:34;;;;;;;58.67;17.50;;;;;;;-2.07;100.00;103267.69;5086982;28;20393;-81
2022/01/11 07:01:00;;;;;;;48.50;15.80;;;;;;;-2.08;100.00;103263.38;5083260;28;20494;-81
2022/01/11 07:03:25;;;;;;;47.55;16.25;;;;;;;-2.05;100.00;103268.66;4378916;28;9999928;-81
2022/01/11 07:05:51;;;;;;;51.50;16.38;;;;;;;-2.04;100.00;103257.69;5083955;28;20016;-81
2022/01/11 07:08:16;;;;;;;56.03;16.15;;;;;;;-2.07;100.00;103253.31;5064330;28;20297;-81
2022/01/11 07:10:41;;;;;;;52.03;15.55;;;;;;;-2.03;100.00;103262.88;5085432;28;20027;-81
2022/01/11 07:13:07;;;;;;;48.05;15.88;;;;;;;-2.09;100.00;103264.16;5080699;28;20030;-81
2022/01/11 07:15:32;;;;;;;49.35;16.38;;;;;;;-2.07;100.00;103277.84;5077794;28;20116;-81
2022/01/11 07:17:58;;;;;;;51.97;16.45;;;;;;;-2.10;100.00;103275.06;5083739;28;20106;-82
2022/01/11 07:20:23;;;;;;;49.78;15.40;;;;;;;-2.13;100.00;103292.69;5088180;28;20195;-83
2022/01/11 07:22:49;;;;;;;46.35;15.55;;;;;;;-2.15;100.00;103294.22;5086856;28;20370;-83
2022/01/11 07:25:15;;;;;;;46.03;15.27;;;;;;;-2.16;100.00;103289.91;5087273;28;20500;-83
2022/01/11 07:27:40;;;;;;;43.55;14.85;;;;;;;-2.17;100.00;103296.66;5077715;28;20032;-82
2022/01/11 07:30:07;;;;;;;49.80;15.95;;;;;;;-2.19;100.00;103295.69;5076075;28;20020;-82
2022/01/11 07:32:35;;;;;;;45.55;14.65;;;;;;;-2.20;100.00;103291.38;5083264;28;20032;-82
2022/01/11 07:35:01;;;;;;;42.67;15.10;;;;;;;-2.20;100.00;103290.50;5081416;28;20154;-82
2022/01/11 07:37:26;;;;;;;47.63;15.63;;;;;;;-2.15;100.00;103290.03;5088754;28;20024;-82
2022/01/11 07:39:52;;;;;;;45.63;15.52;;;;;;;-2.14;100.00;103298.53;5066869;28;20059;-82
2022/01/11 07:42:17;;;;;;;48.30;15.50;;;;;;;-2.15;100.00;103312.00;5075171;28;20024;-82
2022/01/11 07:44:43;;;;;;;47.63;16.27;;;;;;;-2.19;100.00;103302.44;5086108;28;20028;-82
2022/01/11 07:47:08;;;;;;;45.03;15.48;;;;;;;-2.19;100.00;103310.94;5089403;28;20454;-82
2022/01/11 07:49:34;;;;;;;45.05;15.30;;;;;;;-2.16;100.00;103316.19;5087523;28;20023;-82
2022/01/11 07:51:59;;;;;;;47.97;16.42;;;;;;;-2.13;100.00;103316.44;5070047;28;20402;-82
2022/01/11 07:54:24;;;;;;;42.67;15.52;;;;;;;-2.09;100.00;103318.38;5073092;28;20016;-82
2022/01/11 07:56:50;;;;;;;46.28;15.93;;;;;;;-2.07;100.00;103313.41;5085226;28;20024;-82
2022/01/11 07:59:15;;;;;;;44.33;15.18;;;;;;;-2.03;100.00;103315.38;5087871;28;20138;-81
2022/01/11 08:01:40;;;;;;;42.50;16.10;;;;;;;-2.02;100.00;103319.66;5070630;28;20455;-82
2022/01/11 08:04:06;;;;;;;43.20;14.95;;;;;;;-2.00;100.00;103311.38;5086909;28;20088;-82
2022/01/11 08:06:33;;;;;;;41.95;15.73;;;;;;;-1.98;100.00;103319.97;5089332;28;20615;-82
2022/01/11 08:09:00;;;;;;;40.08;15.43;;;;;;;-1.95;100.00;103320.97;5083780;28;20028;-82
2022/01/11 08:11:25;;;;;;;41.45;15.95;;;;;;;-1.92;100.00;103316.09;5089067;28;20485;-82
2022/01/11 08:13:50;;;;;;;42.05;15.65;;;;;;;-1.89;100.00;103314.63;5086484;28;20600;-82
2022/01/11 08:16:16;;;;;;;42.15;16.10;;;;;;;-1.89;100.00;103312.09;5062990;28;20036;-82
2022/01/11 08:18:41;;;;;;;42.25;16.10;;;;;;;-1.82;100.00;103316.78;5084695;28;20531;-82
2022/01/11 08:21:06;;;;;;;40.83;16.13;;;;;;;-1.74;100.00;103317.31;5081568;28;20020;-82
2022/01/11 08:23:33;;;;;;;47.28;16.35;;;;;;;-1.70;100.00;103312.50;5084993;28;20031;-82
2022/01/11 08:25:58;;;;;;;47.63;16.75;;;;;;;-1.62;100.00;103313.03;5084726;28;20107;-82
2022/01/11 08:28:25;;;;;;;44.28;16.77;;;;;;;-1.55;100.00;103319.38;5087467;28;20111;-81
2022/01/11 08:30:51;;;;;;;44.13;16.35;;;;;;;-1.44;100.00;103318.44;5082330;28;20039;-81
2022/01/11 08:33:16;;;;;;;43.50;16.38;;;;;;;-1.33;100.00;103314.91;5070753;28;20106;-81
2022/01/11 08:35:42;;;;;;;42.15;16.27;;;;;;;-1.23;100.00;103318.13;5083967;28;20446;-82
2022/01/11 08:38:07;;;;;;;43.33;16.38;;;;;;;-1.08;100.00;103309.72;5068195;28;21879;-81
2022/01/11 08:40:33;;;;;;;42.72;16.88;;;;;;;-0.97;100.00;103306.19;5084004;28;20071;-83
2022/01/11 08:42:58;;;;;;;46.25;16.98;;;;;;;-0.81;100.00;103297.03;5087055;28;20423;-83
2022/01/11 08:45:23;;;;;;;50.50;17.88;;;;;;;-0.64;100.00;103309.94;5084590;28;20499;-81
2022/01/11 08:47:49;;;;;;;46.80;16.60;;;;;;;-0.51;100.00;103309.91;5081239;28;20023;-82
2022/01/11 08:50:15;;;;;;;49.35;16.75;;;;;;;-0.36;100.00;103315.94;5074165;28;20438;-84
2022/01/11 08:52:41;;;;;;;44.13;16.80;;;;;;;-0.21;100.00;103316.88;5091423;28;20034;-83
2022/01/11 08:55:08;;;;;;;48.90;17.65;;;;;;;-0.04;100.00;103311.09;5086602;28;20048;-83
2022/01/11 08:57:35;;;;;;;43.10;17.13;;;;;;;0.09;100.00;103310.13;5092918;28;20111;-86
2022/01/11 09:00:02;;;;;;;44.22;16.70;;;;;;;0.18;100.00;103307.25;5073740;28;20032;-83
2022/01/11 09:02:29;;;;;;;44.65;16.95;;;;;;;0.28;100.00;103309.50;5092392;28;20118;-83
2022/01/11 09:04:55;;;;;;;40.50;16.65;;;;;;;0.37;100.00;103316.03;5072543;28;20250;-84
2022/01/11 09:07:21;;;;;;;43.35;15.88;;;;;;;0.47;100.00;103321.69;5086617;28;20104;-84
2022/01/11 09:09:47;;;;;;;35.90;15.90;;;;;;;0.53;100.00;103327.13;5083946;28;20478;-82
2022/01/11 09:12:14;;;;;;;37.42;15.95;;;;;;;0.59;100.00;103328.34;5083402;28;20032;-82
2022/01/11 09:14:40;;;;;;;37.13;15.07;;;;;;;0.67;100.00;103337.34;5067155;28;20365;-82
2022/01/11 09:17:07;;;;;;;38.63;15.75;;;;;;;0.75;100.00;103330.97;5092019;28;20024;-82
2022/01/11 09:19:32;;;;;;;39.17;14.57;;;;;;;0.86;100.00;103338.34;5087776;28;20115;-82
2022/01/11 09:21:58;;;;;;;35.55;15.00;;;;;;;0.96;100.00;103340.59;5092097;28;20133;-82
2022/01/11 09:24:29;;;;;;;33.92;14.63;;;;;;;1.05;100.00;103330.91;5072805;28;20028;-82
2022/01/11 09:26:58;;;;;;;35.15;15.10;;;;;;;1.13;100.00;103332.22;5079022;28;20103;-82
2022/01/11 09:29:25;;;;;;;34.83;14.68;;;;;;;1.19;100.00;103335.97;5089764;28;20023;-82
2022/01/11 09:31:51;;;;;;;35.95;15.07;;;;;;;1.28;100.00;103343.28;5092833;28;20028;-82
2022/01/11 09:34:16;;;;;;;34.60;14.38;;;;;;;1.31;99.81;103330.66;5091922;28;20041;-82
2022/01/11 09:36:41;;;;;;;34.28;14.32;;;;;;;1.39;99.35;103336.19;5078119;28;20036;-82
2022/01/11 09:39:07;;;;;;;34.40;14.23;;;;;;;1.47;99.21;103340.03;5085593;28;20397;-82
2022/01/11 09:41:34;;;;;;;36.42;14.80;;;;;;;1.51;98.22;103350.47;5092737;28;20032;-82
2022/01/11 09:43:59;;;;;;;34.88;14.07;;;;;;;1.52;98.77;103347.13;5091503;28;20024;-82
2022/01/11 09:46:25;;;;;;;32.20;13.98;;;;;;;1.59;99.05;103345.78;5065041;28;20081;-82
2022/01/11 09:48:50;;;;;;;37.30;15.40;;;;;;;1.65;98.80;103343.53;5089121;28;20032;-82
2022/01/11 09:51:16;;;;;;;34.25;14.27;;;;;;;1.68;98.02;103353.06;5091640;28;20051;-82
2022/01/11 09:53:41;;;;;;;31.02;13.82;;;;;;;1.73;98.67;103352.50;5071444;28;20351;-82
2022/01/11 09:56:08;;;;;;;32.38;13.90;;;;;;;1.78;98.19;103365.53;5078449;28;20371;-82
2022/01/11 09:58:34;;;;;;;35.28;14.85;;;;;;;1.80;97.97;103364.81;5070175;28;20027;-81
2022/01/11 10:01:00;;;;;;;35.85;14.05;;;;;;;1.80;97.42;103359.69;5075175;28;20032;-82
2022/01/11 10:03:25;;;;;;;34.22;14.55;;;;;;;1.88;97.41;103370.34;5091386;28;20073;-82
2022/01/11 10:05:51;;;;;;;35.78;14.68;;;;;;;1.91;97.29;103365.41;5071684;28;20090;-82
2022/01/11 10:08:28;;;;;;;32.60;14.55;;;;;;;1.98;97.40;103367.44;5091456;28;20032;-82
2022/01/11 10:10:57;;;;;;;30.90;13.32;;;;;;;2.02;96.84;103361.69;5071789;28;20028;-82
2022/01/11 10:13:36;;;;;;;32.97;13.50;;;;;;;2.05;96.82;103355.88;5085791;28;20022;-82
2022/01/11 10:16:23;;;;;;;33.65;13.68;;;;;;;2.12;97.38;103357.91;5090109;28;20047;-82
2022/01/11 10:18:50;;;;;;;29.38;12.45;;;;;;;2.13;97.28;103358.00;5091434;28;20020;-82
2022/01/11 10:21:39;;;;;;;28.52;12.73;;;;;;;2.16;96.36;103358.19;5085421;28;20117;-83
2022/01/11 10:24:24;;;;;;;27.92;12.48;;;;;;;2.18;96.31;103353.16;5090261;28;20024;-84
2022/01/11 10:26:51;;;;;;;29.92;13.35;;;;;;;2.18;96.54;103360.81;5090282;28;20050;-82
2022/01/11 10:29:28;;;;;;;33.10;13.07;;;;;;;2.22;95.38;103361.03;5082980;28;20444;-82
2022/01/11 10:31:54;;;;;;;31.63;12.98;;;;;;;2.23;96.02;103352.56;5070451;28;20092;-82
2022/01/11 10:34:51;;;;;;;29.33;13.68;;;;;;;2.31;96.65;103352.97;5083819;28;20174;-82
2022/01/11 10:37:27;;;;;;;30.27;12.82;;;;;;;2.33;96.08;103354.78;5088002;28;20039;-81
2022/01/11 10:40:00;;;;;;;28.65;12.88;;;;;;;2.36;95.59;103354.94;5084893;28;20486;-80
2022/01/11 10:42:30;;;;;;;32.03;13.65;;;;;;;2.42;96.48;103361.16;5059433;28;20015;-80
2022/01/11 10:44:59;;;;;;;31.30;12.07;;;;;;;2.45;95.80;103357.09;5072601;28;20101;-82
2022/01/11 10:47:27;;;;;;;31.77;14.00;;;;;;;2.48;94.83;103351.22;5090499;28;20016;-82
2022/01/11 10:49:56;;;;;;;32.10;13.65;;;;;;;2.51;94.86;103359.06;5070343;28;20486;-82
2022/01/11 10:52:24;;;;;;;33.17;13.73;;;;;;;2.52;95.66;103359.16;5085925;28;20020;-83
2022/01/11 10:54:51;;;;;;;32.67;13.02;;;;;;;2.58;94.87;103356.88;5089831;28;20081;-82
2022/01/11 10:57:20;;;;;;;32.15;13.30;;;;;;;2.67;95.65;103356.44;5090148;28;20058;-83
2022/01/11 11:00:08;;;;;;;33.20;13.90;;;;;;;2.75;94.99;103360.25;5088286;28;20089;-84
2022/01/11 11:02:34;;;;;;;29.77;12.40;;;;;;;2.80;94.44;103360.50;5090316;28;20102;-83
2022/01/11 11:05:10;;;;;;;36.13;15.07;;;;;;;2.88;94.26;103361.72;5082750;28;20095;-83